sensor_id;sensor_type;location;lat;lon;timestamp;temperature;humidity
7000;DHT22;3540;53.242;10.408;2022-07-31T00:00:12;18.90;99.90
7000;DHT22;3540;53.242;10.408;2022-07-31T00:02:39;18.90;99.90
7000;DHT22;3540;53.242;10.408;2022-07-31T00:05:05;18.90;99.90
7000;DHT22;3540;53.242;10.408;2022-07-31T00:07:31;18.80;99.90
7000;DHT22;3540;53.242;10.408;2022-07-31T00:09:56;18.80;99.90
7000;DHT22;3540;53.242;10.408;2022-07-31T00:12:22;18.70;99.90
7000;DHT22;3540;53.242;10.408;2022-07-31T00:14:48;18.70;99.90
7000;DHT22;3540;53.242;10.408;2022-07-31T00:17:14;18.70;99.90
7000;DHT22;3540;53.242;10.408;2022-07-31T00:19:39;18.70;99.90
7000;DHT22;3540;53.242;10.408;2022-07-31T00:22:06;18.60;99.90
7000;DHT22;3540;53.242;10.408;2022-07-31T00:24:31;18.60;99.90
7000;DHT22;3540;53.242;10.408;2022-07-31T00:26:57;18.50;99.90
7000;DHT22;3540;53.242;10.408;2022-07-31T00:29:23;18.50;99.90
7000;DHT22;3540;53.242;10.408;2022-07-31T00:31:49;18.50;99.90
7000;DHT22;3540;53.242;10.408;2022-07-31T00:34:15;18.50;99.90
7000;DHT22;3540;53.242;10.408;2022-07-31T00:36:40;18.40;99.90
7000;DHT22;3540;53.242;10.408;2022-07-31T00:39:07;18.40;99.90
7000;DHT22;3540;53.242;10.408;2022-07-31T00:41:42;18.40;99.90
7000;DHT22;3540;53.242;10.408;2022-07-31T00:44:12;18.30;99.90
7000;DHT22;3540;53.242;10.408;2022-07-31T00:46:38;18.30;99.90
7000;DHT22;3540;53.242;10.408;2022-07-31T00:49:04;18.30;99.90
7000;DHT22;3540;53.242;10.408;2022-07-31T00:51:38;18.30;99.90
7000;DHT22;3540;53.242;10.408;2022-07-31T00:54:04;18.20;99.90
7000;DHT22;3540;53.242;10.408;2022-07-31T00:56:30;18.20;99.90
7000;DHT22;3540;53.242;10.408;2022-07-31T00:58:56;18.20;99.90
7000;DHT22;3540;53.242;10.408;2022-07-31T01:01:21;18.20;99.90
7000;DHT22;3540;53.242;10.408;2022-07-31T01:03:48;18.20;99.90
7000;DHT22;3540;53.242;10.408;2022-07-31T01:06:14;18.20;99.90
7000;DHT22;3540;53.242;10.408;2022-07-31T01:08:39;18.20;99.90
7000;DHT22;3540;53.242;10.408;2022-07-31T01:14:15;18.10;99.90
7000;DHT22;3540;53.242;10.408;2022-07-31T01:16:44;18.10;99.90
7000;DHT22;3540;53.242;10.408;2022-07-31T01:30:25;17.90;99.90
7000;DHT22;3540;53.242;10.408;2022-07-31T01:32:54;17.90;99.90
7000;DHT22;3540;53.242;10.408;2022-07-31T01:35:30;17.90;99.90
7000;DHT22;3540;53.242;10.408;2022-07-31T01:40:35;17.80;99.90
7000;DHT22;3540;53.242;10.408;2022-07-31T01:43:28;17.80;99.90
7000;DHT22;3540;53.242;10.408;2022-07-31T01:45:55;17.80;99.90
7000;DHT22;3540;53.242;10.408;2022-07-31T01:48:22;17.70;99.90
7000;DHT22;3540;53.242;10.408;2022-07-31T01:50:50;17.70;99.90
7000;DHT22;3540;53.242;10.408;2022-07-31T01:53:20;17.60;99.90
7000;DHT22;3540;53.242;10.408;2022-07-31T01:55:47;17.60;99.90
7000;DHT22;3540;53.242;10.408;2022-07-31T01:58:18;17.50;99.90
7000;DHT22;3540;53.242;10.408;2022-07-31T02:00:46;17.50;99.90
7000;DHT22;3540;53.242;10.408;2022-07-31T02:03:12;17.50;99.90
7000;DHT22;3540;53.242;10.408;2022-07-31T02:05:40;17.50;99.90
7000;DHT22;3540;53.242;10.408;2022-07-31T02:08:08;17.50;99.90
7000;DHT22;3540;53.242;10.408;2022-07-31T02:10:36;17.50;99.90
7000;DHT22;3540;53.242;10.408;2022-07-31T02:13:03;17.50;99.90
7000;DHT22;3540;53.242;10.408;2022-07-31T02:15:31;17.50;99.90
7000;DHT22;3540;53.242;10.408;2022-07-31T02:17:58;17.50;99.90
7000;DHT22;3540;53.242;10.408;2022-07-31T02:20:25;17.50;99.90
7000;DHT22;3540;53.242;10.408;2022-07-31T02:22:53;17.50;99.90
7000;DHT22;3540;53.242;10.408;2022-07-31T02:25:19;17.40;99.90
7000;DHT22;3540;53.242;10.408;2022-07-31T02:27:45;17.40;99.90
7000;DHT22;3540;53.242;10.408;2022-07-31T02:30:12;17.40;99.90
7000;DHT22;3540;53.242;10.408;2022-07-31T02:32:42;17.40;99.90
7000;DHT22;3540;53.242;10.408;2022-07-31T02:35:10;17.30;99.90
7000;DHT22;3540;53.242;10.408;2022-07-31T02:37:38;17.30;99.90
7000;DHT22;3540;53.242;10.408;2022-07-31T02:40:05;17.30;99.90
7000;DHT22;3540;53.242;10.408;2022-07-31T02:42:32;17.30;99.90
7000;DHT22;3540;53.242;10.408;2022-07-31T02:45:00;17.30;99.90
7000;DHT22;3540;53.242;10.408;2022-07-31T02:47:26;17.20;99.90
7000;DHT22;3540;53.242;10.408;2022-07-31T02:49:53;17.20;99.90
7000;DHT22;3540;53.242;10.408;2022-07-31T02:52:20;17.20;99.90
7000;DHT22;3540;53.242;10.408;2022-07-31T02:54:46;17.10;99.90
7000;DHT22;3540;53.242;10.408;2022-07-31T02:57:12;17.10;99.90
7000;DHT22;3540;53.242;10.408;2022-07-31T02:59:38;17.10;99.90
7000;DHT22;3540;53.242;10.408;2022-07-31T03:02:05;17.10;99.90
7000;DHT22;3540;53.242;10.408;2022-07-31T03:04:31;17.10;99.90
7000;DHT22;3540;53.242;10.408;2022-07-31T03:06:57;17.00;99.90
7000;DHT22;3540;53.242;10.408;2022-07-31T03:09:25;17.00;99.90
7000;DHT22;3540;53.242;10.408;2022-07-31T03:11:50;17.00;99.90
7000;DHT22;3540;53.242;10.408;2022-07-31T03:14:17;17.00;99.90
7000;DHT22;3540;53.242;10.408;2022-07-31T03:16:44;16.90;99.90
7000;DHT22;3540;53.242;10.408;2022-07-31T03:19:11;16.90;99.90
7000;DHT22;3540;53.242;10.408;2022-07-31T03:21:38;16.90;99.90
7000;DHT22;3540;53.242;10.408;2022-07-31T03:24:04;16.90;99.90
7000;DHT22;3540;53.242;10.408;2022-07-31T03:26:30;16.90;99.90
7000;DHT22;3540;53.242;10.408;2022-07-31T03:28:58;16.90;99.90
7000;DHT22;3540;53.242;10.408;2022-07-31T03:31:24;16.90;99.90
7000;DHT22;3540;53.242;10.408;2022-07-31T03:33:50;16.90;99.90
7000;DHT22;3540;53.242;10.408;2022-07-31T03:36:16;16.90;99.90
7000;DHT22;3540;53.242;10.408;2022-07-31T03:38:42;16.90;99.90
7000;DHT22;3540;53.242;10.408;2022-07-31T03:41:08;16.80;99.90
7000;DHT22;3540;53.242;10.408;2022-07-31T03:43:34;16.80;99.90
7000;DHT22;3540;53.242;10.408;2022-07-31T03:46:01;16.80;99.90
7000;DHT22;3540;53.242;10.408;2022-07-31T03:48:29;16.80;99.90
7000;DHT22;3540;53.242;10.408;2022-07-31T03:50:55;16.80;99.90
7000;DHT22;3540;53.242;10.408;2022-07-31T03:53:22;16.80;99.90
7000;DHT22;3540;53.242;10.408;2022-07-31T03:55:49;16.80;99.90
7000;DHT22;3540;53.242;10.408;2022-07-31T03:58:17;16.80;99.90
7000;DHT22;3540;53.242;10.408;2022-07-31T04:00:44;16.80;99.90
7000;DHT22;3540;53.242;10.408;2022-07-31T04:03:11;16.80;99.90
7000;DHT22;3540;53.242;10.408;2022-07-31T04:05:40;16.80;99.90
7000;DHT22;3540;53.242;10.408;2022-07-31T04:08:07;16.80;99.90
7000;DHT22;3540;53.242;10.408;2022-07-31T04:10:34;16.80;99.90
7000;DHT22;3540;53.242;10.408;2022-07-31T04:13:04;16.70;99.90
7000;DHT22;3540;53.242;10.408;2022-07-31T04:15:29;16.70;99.90
7000;DHT22;3540;53.242;10.408;2022-07-31T04:17:55;16.80;99.90
7000;DHT22;3540;53.242;10.408;2022-07-31T04:20:21;16.70;99.90
7000;DHT22;3540;53.242;10.408;2022-07-31T04:22:47;16.80;99.90
7000;DHT22;3540;53.242;10.408;2022-07-31T04:25:14;16.80;99.90
7000;DHT22;3540;53.242;10.408;2022-07-31T04:27:40;16.80;99.90
7000;DHT22;3540;53.242;10.408;2022-07-31T04:30:07;16.80;99.90
7000;DHT22;3540;53.242;10.408;2022-07-31T04:32:34;16.80;99.90
7000;DHT22;3540;53.242;10.408;2022-07-31T04:35:00;16.90;99.90
7000;DHT22;3540;53.242;10.408;2022-07-31T04:37:27;16.90;99.90
7000;DHT22;3540;53.242;10.408;2022-07-31T04:39:52;16.90;99.90
7000;DHT22;3540;53.242;10.408;2022-07-31T04:42:18;16.90;99.90
7000;DHT22;3540;53.242;10.408;2022-07-31T04:44:44;17.00;99.90
7000;DHT22;3540;53.242;10.408;2022-07-31T04:47:10;17.00;99.90
7000;DHT22;3540;53.242;10.408;2022-07-31T04:49:36;17.10;99.90
7000;DHT22;3540;53.242;10.408;2022-07-31T04:52:02;17.10;99.90
7000;DHT22;3540;53.242;10.408;2022-07-31T04:54:27;17.10;99.90
7000;DHT22;3540;53.242;10.408;2022-07-31T04:56:54;17.20;99.90
7000;DHT22;3540;53.242;10.408;2022-07-31T04:59:21;17.20;99.90
7000;DHT22;3540;53.242;10.408;2022-07-31T05:01:48;17.20;99.90
7000;DHT22;3540;53.242;10.408;2022-07-31T05:04:14;17.20;99.90
7000;DHT22;3540;53.242;10.408;2022-07-31T05:09:11;17.20;99.90
7000;DHT22;3540;53.242;10.408;2022-07-31T05:11:40;17.20;99.90
7000;DHT22;3540;53.242;10.408;2022-07-31T05:14:07;17.20;99.90
7000;DHT22;3540;53.242;10.408;2022-07-31T05:16:34;17.20;99.90
7000;DHT22;3540;53.242;10.408;2022-07-31T05:19:00;17.20;99.90
7000;DHT22;3540;53.242;10.408;2022-07-31T05:21:27;17.20;99.90
7000;DHT22;3540;53.242;10.408;2022-07-31T05:23:53;17.30;99.90
7000;DHT22;3540;53.242;10.408;2022-07-31T05:26:20;17.30;99.90
7000;DHT22;3540;53.242;10.408;2022-07-31T05:28:46;17.30;99.90
7000;DHT22;3540;53.242;10.408;2022-07-31T05:31:15;17.30;99.90
7000;DHT22;3540;53.242;10.408;2022-07-31T05:33:40;17.40;99.90
7000;DHT22;3540;53.242;10.408;2022-07-31T05:36:06;17.40;99.90
7000;DHT22;3540;53.242;10.408;2022-07-31T05:38:32;17.40;99.90
7000;DHT22;3540;53.242;10.408;2022-07-31T05:40:58;17.40;99.90
7000;DHT22;3540;53.242;10.408;2022-07-31T05:43:23;17.40;99.90
7000;DHT22;3540;53.242;10.408;2022-07-31T05:45:49;17.60;99.90
7000;DHT22;3540;53.242;10.408;2022-07-31T05:48:16;17.60;99.90
7000;DHT22;3540;53.242;10.408;2022-07-31T05:50:42;17.60;99.90
7000;DHT22;3540;53.242;10.408;2022-07-31T05:53:08;17.70;99.90
7000;DHT22;3540;53.242;10.408;2022-07-31T05:55:37;17.70;99.90
7000;DHT22;3540;53.242;10.408;2022-07-31T05:58:03;17.80;99.90
7000;DHT22;3540;53.242;10.408;2022-07-31T06:00:29;17.90;99.90
7000;DHT22;3540;53.242;10.408;2022-07-31T06:02:55;18.00;99.90
7000;DHT22;3540;53.242;10.408;2022-07-31T06:05:21;18.00;99.90
7000;DHT22;3540;53.242;10.408;2022-07-31T06:07:47;18.10;99.90
7000;DHT22;3540;53.242;10.408;2022-07-31T06:10:15;18.20;99.90
7000;DHT22;3540;53.242;10.408;2022-07-31T06:12:40;18.20;99.90
7000;DHT22;3540;53.242;10.408;2022-07-31T06:15:06;18.30;99.90
7000;DHT22;3540;53.242;10.408;2022-07-31T06:17:32;18.30;99.90
7000;DHT22;3540;53.242;10.408;2022-07-31T06:19:58;18.40;99.90
7000;DHT22;3540;53.242;10.408;2022-07-31T06:22:24;18.50;99.90
7000;DHT22;3540;53.242;10.408;2022-07-31T06:24:49;18.50;99.90
7000;DHT22;3540;53.242;10.408;2022-07-31T06:27:15;18.60;99.90
7000;DHT22;3540;53.242;10.408;2022-07-31T06:29:41;18.70;99.90
7000;DHT22;3540;53.242;10.408;2022-07-31T06:32:07;18.70;99.90
7000;DHT22;3540;53.242;10.408;2022-07-31T06:34:33;18.80;99.90
7000;DHT22;3540;53.242;10.408;2022-07-31T06:36:59;18.90;99.90
7000;DHT22;3540;53.242;10.408;2022-07-31T06:39:24;18.90;99.90
7000;DHT22;3540;53.242;10.408;2022-07-31T06:41:50;19.00;99.90
7000;DHT22;3540;53.242;10.408;2022-07-31T06:44:17;19.00;99.90
7000;DHT22;3540;53.242;10.408;2022-07-31T06:46:45;19.10;99.90
7000;DHT22;3540;53.242;10.408;2022-07-31T06:49:11;19.10;99.90
7000;DHT22;3540;53.242;10.408;2022-07-31T06:51:37;19.10;99.90
7000;DHT22;3540;53.242;10.408;2022-07-31T06:54:05;19.00;99.90
7000;DHT22;3540;53.242;10.408;2022-07-31T06:56:31;19.10;99.90
7000;DHT22;3540;53.242;10.408;2022-07-31T06:58:57;19.30;99.90
7000;DHT22;3540;53.242;10.408;2022-07-31T07:01:23;19.40;99.90
7000;DHT22;3540;53.242;10.408;2022-07-31T07:03:49;19.40;99.90
7000;DHT22;3540;53.242;10.408;2022-07-31T07:06:14;19.40;99.90
7000;DHT22;3540;53.242;10.408;2022-07-31T07:08:40;19.30;99.90
7000;DHT22;3540;53.242;10.408;2022-07-31T07:11:05;19.40;99.90
7000;DHT22;3540;53.242;10.408;2022-07-31T07:13:31;19.40;99.90
7000;DHT22;3540;53.242;10.408;2022-07-31T07:15:57;19.50;99.90
7000;DHT22;3540;53.242;10.408;2022-07-31T07:18:22;19.60;99.90
7000;DHT22;3540;53.242;10.408;2022-07-31T07:20:49;19.60;99.90
7000;DHT22;3540;53.242;10.408;2022-07-31T07:23:15;19.60;99.90
7000;DHT22;3540;53.242;10.408;2022-07-31T07:25:41;19.60;99.90
7000;DHT22;3540;53.242;10.408;2022-07-31T07:28:07;19.60;99.90
7000;DHT22;3540;53.242;10.408;2022-07-31T07:30:33;19.70;99.90
7000;DHT22;3540;53.242;10.408;2022-07-31T07:32:59;19.70;99.90
7000;DHT22;3540;53.242;10.408;2022-07-31T07:35:25;19.80;99.90
7000;DHT22;3540;53.242;10.408;2022-07-31T07:37:51;19.90;99.90
7000;DHT22;3540;53.242;10.408;2022-07-31T07:40:17;19.90;99.90
7000;DHT22;3540;53.242;10.408;2022-07-31T07:42:43;19.90;99.90
7000;DHT22;3540;53.242;10.408;2022-07-31T07:45:10;20.00;99.90
7000;DHT22;3540;53.242;10.408;2022-07-31T07:47:36;20.00;99.90
7000;DHT22;3540;53.242;10.408;2022-07-31T07:50:05;20.10;99.90
7000;DHT22;3540;53.242;10.408;2022-07-31T07:52:31;20.20;99.90
7000;DHT22;3540;53.242;10.408;2022-07-31T07:54:56;20.20;99.90
7000;DHT22;3540;53.242;10.408;2022-07-31T07:57:23;20.40;99.90
7000;DHT22;3540;53.242;10.408;2022-07-31T07:59:49;20.60;99.90
7000;DHT22;3540;53.242;10.408;2022-07-31T08:02:14;20.70;99.90
7000;DHT22;3540;53.242;10.408;2022-07-31T08:04:41;21.00;99.90
7000;DHT22;3540;53.242;10.408;2022-07-31T08:07:06;21.00;99.90
7000;DHT22;3540;53.242;10.408;2022-07-31T08:09:33;21.00;99.90
7000;DHT22;3540;53.242;10.408;2022-07-31T08:11:59;21.20;99.90
7000;DHT22;3540;53.242;10.408;2022-07-31T08:14:25;21.20;99.90
7000;DHT22;3540;53.242;10.408;2022-07-31T08:16:54;21.10;99.90
7000;DHT22;3540;53.242;10.408;2022-07-31T08:19:20;21.10;99.90
7000;DHT22;3540;53.242;10.408;2022-07-31T08:21:46;21.20;99.90
7000;DHT22;3540;53.242;10.408;2022-07-31T08:24:12;21.20;99.90
7000;DHT22;3540;53.242;10.408;2022-07-31T08:26:38;21.20;99.90
7000;DHT22;3540;53.242;10.408;2022-07-31T08:29:22;21.50;99.90
7000;DHT22;3540;53.242;10.408;2022-07-31T08:31:48;21.70;99.90
7000;DHT22;3540;53.242;10.408;2022-07-31T08:34:14;21.80;99.90
7000;DHT22;3540;53.242;10.408;2022-07-31T08:36:39;21.90;99.90
7000;DHT22;3540;53.242;10.408;2022-07-31T08:39:05;22.00;99.90
7000;DHT22;3540;53.242;10.408;2022-07-31T08:41:32;22.10;99.90
7000;DHT22;3540;53.242;10.408;2022-07-31T08:43:58;22.20;99.90
7000;DHT22;3540;53.242;10.408;2022-07-31T08:46:25;22.20;99.90
7000;DHT22;3540;53.242;10.408;2022-07-31T08:48:55;22.20;99.90
7000;DHT22;3540;53.242;10.408;2022-07-31T08:51:22;22.10;99.90
7000;DHT22;3540;53.242;10.408;2022-07-31T08:53:50;22.00;99.90
7000;DHT22;3540;53.242;10.408;2022-07-31T08:56:16;22.00;99.90
7000;DHT22;3540;53.242;10.408;2022-07-31T08:58:43;22.30;99.90
7000;DHT22;3540;53.242;10.408;2022-07-31T09:01:12;22.50;99.90
7000;DHT22;3540;53.242;10.408;2022-07-31T09:03:38;22.60;99.90
7000;DHT22;3540;53.242;10.408;2022-07-31T09:06:04;22.80;99.90
7000;DHT22;3540;53.242;10.408;2022-07-31T09:08:34;22.70;99.90
7000;DHT22;3540;53.242;10.408;2022-07-31T09:11:04;22.90;99.90
7000;DHT22;3540;53.242;10.408;2022-07-31T09:13:30;22.90;99.90
7000;DHT22;3540;53.242;10.408;2022-07-31T09:15:58;23.00;99.90
7000;DHT22;3540;53.242;10.408;2022-07-31T09:18:23;23.20;99.90
7000;DHT22;3540;53.242;10.408;2022-07-31T09:21:03;23.20;99.90
7000;DHT22;3540;53.242;10.408;2022-07-31T09:23:30;23.40;99.90
7000;DHT22;3540;53.242;10.408;2022-07-31T09:26:02;23.70;99.90
7000;DHT22;3540;53.242;10.408;2022-07-31T09:28:36;23.90;99.90
7000;DHT22;3540;53.242;10.408;2022-07-31T09:31:04;24.20;99.90
7000;DHT22;3540;53.242;10.408;2022-07-31T09:33:30;24.20;99.90
7000;DHT22;3540;53.242;10.408;2022-07-31T09:35:57;23.90;99.90
7000;DHT22;3540;53.242;10.408;2022-07-31T09:38:36;24.00;99.90
7000;DHT22;3540;53.242;10.408;2022-07-31T09:43:37;24.10;99.90
7000;DHT22;3540;53.242;10.408;2022-07-31T09:46:04;24.30;99.90
7000;DHT22;3540;53.242;10.408;2022-07-31T09:48:30;24.30;99.90
7000;DHT22;3540;53.242;10.408;2022-07-31T09:50:58;24.40;99.90
7000;DHT22;3540;53.242;10.408;2022-07-31T09:53:25;24.50;99.90
7000;DHT22;3540;53.242;10.408;2022-07-31T09:55:54;24.50;99.90
7000;DHT22;3540;53.242;10.408;2022-07-31T09:58:21;24.40;99.90
7000;DHT22;3540;53.242;10.408;2022-07-31T10:00:51;24.40;99.90
7000;DHT22;3540;53.242;10.408;2022-07-31T10:03:18;24.40;99.90
7000;DHT22;3540;53.242;10.408;2022-07-31T10:05:45;24.70;99.90
7000;DHT22;3540;53.242;10.408;2022-07-31T10:08:12;25.00;99.90
7000;DHT22;3540;53.242;10.408;2022-07-31T10:10:41;24.70;99.90
7000;DHT22;3540;53.242;10.408;2022-07-31T10:13:11;24.70;99.90
7000;DHT22;3540;53.242;10.408;2022-07-31T10:15:40;25.00;99.90
7000;DHT22;3540;53.242;10.408;2022-07-31T10:18:07;25.40;99.90
7000;DHT22;3540;53.242;10.408;2022-07-31T10:20:33;25.60;99.90
7000;DHT22;3540;53.242;10.408;2022-07-31T10:23:14;25.60;1.00
7000;DHT22;3540;53.242;10.408;2022-07-31T10:25:46;25.60;1.00
7000;DHT22;3540;53.242;10.408;2022-07-31T10:28:13;25.60;99.90
7000;DHT22;3540;53.242;10.408;2022-07-31T10:30:38;25.70;99.90
7000;DHT22;3540;53.242;10.408;2022-07-31T10:33:04;25.20;1.00
7000;DHT22;3540;53.242;10.408;2022-07-31T10:35:40;25.10;99.90
7000;DHT22;3540;53.242;10.408;2022-07-31T10:38:16;25.40;99.90
7000;DHT22;3540;53.242;10.408;2022-07-31T10:41:09;25.70;99.90
7000;DHT22;3540;53.242;10.408;2022-07-31T10:43:56;26.10;99.90
7000;DHT22;3540;53.242;10.408;2022-07-31T10:46:32;26.70;99.90
7000;DHT22;3540;53.242;10.408;2022-07-31T10:48:58;26.90;99.90
7000;DHT22;3540;53.242;10.408;2022-07-31T10:51:25;27.10;99.90
7000;DHT22;3540;53.242;10.408;2022-07-31T10:54:01;27.40;99.90
7000;DHT22;3540;53.242;10.408;2022-07-31T10:56:28;27.50;99.90
7000;DHT22;3540;53.242;10.408;2022-07-31T10:59:04;27.80;99.90
7000;DHT22;3540;53.242;10.408;2022-07-31T11:01:30;28.10;99.90
7000;DHT22;3540;53.242;10.408;2022-07-31T11:04:00;28.10;1.00
7000;DHT22;3540;53.242;10.408;2022-07-31T11:06:39;28.20;99.90
7000;DHT22;3540;53.242;10.408;2022-07-31T11:09:05;28.40;1.00
7000;DHT22;3540;53.242;10.408;2022-07-31T11:11:33;28.20;99.90
7000;DHT22;3540;53.242;10.408;2022-07-31T11:13:59;28.00;99.90
7000;DHT22;3540;53.242;10.408;2022-07-31T11:16:26;27.40;99.90
7000;DHT22;3540;53.242;10.408;2022-07-31T11:19:10;27.10;99.90
7000;DHT22;3540;53.242;10.408;2022-07-31T11:21:40;27.10;99.90
7000;DHT22;3540;53.242;10.408;2022-07-31T11:24:15;27.10;99.90
7000;DHT22;3540;53.242;10.408;2022-07-31T11:29:38;27.50;99.90
7000;DHT22;3540;53.242;10.408;2022-07-31T11:34:51;27.90;1.00
7000;DHT22;3540;53.242;10.408;2022-07-31T11:37:29;28.00;99.90
7000;DHT22;3540;53.242;10.408;2022-07-31T11:39:56;27.90;99.90
7000;DHT22;3540;53.242;10.408;2022-07-31T11:42:23;27.80;99.90
7000;DHT22;3540;53.242;10.408;2022-07-31T11:44:49;27.70;99.90
7000;DHT22;3540;53.242;10.408;2022-07-31T11:47:15;27.90;99.90
7000;DHT22;3540;53.242;10.408;2022-07-31T11:49:41;27.90;99.90
7000;DHT22;3540;53.242;10.408;2022-07-31T11:52:09;27.80;75.60
7000;DHT22;3540;53.242;10.408;2022-07-31T11:54:37;27.80;99.90
7000;DHT22;3540;53.242;10.408;2022-07-31T11:57:04;27.70;99.90
7000;DHT22;3540;53.242;10.408;2022-07-31T11:59:38;28.00;99.90
7000;DHT22;3540;53.242;10.408;2022-07-31T12:02:07;28.00;99.90
7000;DHT22;3540;53.242;10.408;2022-07-31T12:04:34;27.70;99.90
7000;DHT22;3540;53.242;10.408;2022-07-31T12:07:04;27.70;99.90
7000;DHT22;3540;53.242;10.408;2022-07-31T12:09:31;28.20;99.90
7000;DHT22;3540;53.242;10.408;2022-07-31T12:11:57;28.70;99.90
7000;DHT22;3540;53.242;10.408;2022-07-31T12:14:30;29.30;1.00
7000;DHT22;3540;53.242;10.408;2022-07-31T12:16:56;29.20;94.50
7000;DHT22;3540;53.242;10.408;2022-07-31T12:19:26;29.10;1.00
7000;DHT22;3540;53.242;10.408;2022-07-31T12:21:51;29.10;1.00
7000;DHT22;3540;53.242;10.408;2022-07-31T12:24:17;29.20;1.00
7000;DHT22;3540;53.242;10.408;2022-07-31T12:26:50;29.10;1.00
7000;DHT22;3540;53.242;10.408;2022-07-31T12:29:15;28.80;99.90
7000;DHT22;3540;53.242;10.408;2022-07-31T12:34:25;28.20;99.90
7000;DHT22;3540;53.242;10.408;2022-07-31T12:37:05;28.20;99.90
7000;DHT22;3540;53.242;10.408;2022-07-31T12:39:35;28.70;99.90
7000;DHT22;3540;53.242;10.408;2022-07-31T12:42:01;28.90;99.90
7000;DHT22;3540;53.242;10.408;2022-07-31T12:44:27;28.70;99.90
7000;DHT22;3540;53.242;10.408;2022-07-31T12:46:53;28.30;99.90
7000;DHT22;3540;53.242;10.408;2022-07-31T12:49:19;28.00;99.90
7000;DHT22;3540;53.242;10.408;2022-07-31T12:51:45;27.60;99.90
7000;DHT22;3540;53.242;10.408;2022-07-31T12:54:15;27.40;99.90
7000;DHT22;3540;53.242;10.408;2022-07-31T12:56:41;27.20;99.90
7000;DHT22;3540;53.242;10.408;2022-07-31T12:59:07;27.20;99.90
7000;DHT22;3540;53.242;10.408;2022-07-31T13:01:33;27.20;99.90
7000;DHT22;3540;53.242;10.408;2022-07-31T13:04:00;27.10;99.90
7000;DHT22;3540;53.242;10.408;2022-07-31T13:06:27;27.20;99.90
7000;DHT22;3540;53.242;10.408;2022-07-31T13:08:53;27.10;99.90
7000;DHT22;3540;53.242;10.408;2022-07-31T13:11:19;27.30;99.90
7000;DHT22;3540;53.242;10.408;2022-07-31T13:13:44;27.60;99.90
7000;DHT22;3540;53.242;10.408;2022-07-31T13:16:10;27.60;99.90
7000;DHT22;3540;53.242;10.408;2022-07-31T13:18:36;27.50;99.90
7000;DHT22;3540;53.242;10.408;2022-07-31T13:21:03;27.80;99.90
7000;DHT22;3540;53.242;10.408;2022-07-31T13:23:28;27.90;99.90
7000;DHT22;3540;53.242;10.408;2022-07-31T13:25:54;27.90;99.90
7000;DHT22;3540;53.242;10.408;2022-07-31T13:28:21;27.80;99.90
7000;DHT22;3540;53.242;10.408;2022-07-31T13:30:47;27.60;99.90
7000;DHT22;3540;53.242;10.408;2022-07-31T13:33:13;27.50;99.90
7000;DHT22;3540;53.242;10.408;2022-07-31T13:35:39;27.30;99.90
7000;DHT22;3540;53.242;10.408;2022-07-31T13:38:05;27.30;99.90
7000;DHT22;3540;53.242;10.408;2022-07-31T13:40:30;27.10;99.90
7000;DHT22;3540;53.242;10.408;2022-07-31T13:43:15;27.00;99.90
7000;DHT22;3540;53.242;10.408;2022-07-31T13:45:41;26.90;99.90
7000;DHT22;3540;53.242;10.408;2022-07-31T13:48:07;26.80;99.90
7000;DHT22;3540;53.242;10.408;2022-07-31T13:50:33;26.80;99.90
7000;DHT22;3540;53.242;10.408;2022-07-31T13:52:58;26.70;99.90
7000;DHT22;3540;53.242;10.408;2022-07-31T13:55:24;26.70;99.90
7000;DHT22;3540;53.242;10.408;2022-07-31T13:57:51;26.80;99.90
7000;DHT22;3540;53.242;10.408;2022-07-31T14:00:16;26.70;99.90
7000;DHT22;3540;53.242;10.408;2022-07-31T14:02:42;26.60;99.90
7000;DHT22;3540;53.242;10.408;2022-07-31T14:05:14;26.60;99.90
7000;DHT22;3540;53.242;10.408;2022-07-31T14:07:39;26.70;99.90
7000;DHT22;3540;53.242;10.408;2022-07-31T14:10:05;26.50;99.90
7000;DHT22;3540;53.242;10.408;2022-07-31T14:12:31;26.50;99.90
7000;DHT22;3540;53.242;10.408;2022-07-31T14:14:56;26.50;99.90
7000;DHT22;3540;53.242;10.408;2022-07-31T14:17:22;26.60;99.90
7000;DHT22;3540;53.242;10.408;2022-07-31T14:19:48;26.50;99.90
7000;DHT22;3540;53.242;10.408;2022-07-31T14:22:13;26.60;99.90
7000;DHT22;3540;53.242;10.408;2022-07-31T14:24:39;26.70;99.90
7000;DHT22;3540;53.242;10.408;2022-07-31T14:27:05;26.70;99.90
7000;DHT22;3540;53.242;10.408;2022-07-31T14:29:31;26.80;99.90
7000;DHT22;3540;53.242;10.408;2022-07-31T14:31:56;26.70;99.90
7000;DHT22;3540;53.242;10.408;2022-07-31T14:34:22;26.70;99.90
7000;DHT22;3540;53.242;10.408;2022-07-31T14:36:48;26.80;99.90
7000;DHT22;3540;53.242;10.408;2022-07-31T14:39:14;26.80;99.90
7000;DHT22;3540;53.242;10.408;2022-07-31T14:41:39;26.60;99.90
7000;DHT22;3540;53.242;10.408;2022-07-31T14:44:05;26.70;99.90
7000;DHT22;3540;53.242;10.408;2022-07-31T14:46:30;26.60;99.90
7000;DHT22;3540;53.242;10.408;2022-07-31T14:48:56;26.40;99.90
7000;DHT22;3540;53.242;10.408;2022-07-31T14:51:24;26.20;99.90
7000;DHT22;3540;53.242;10.408;2022-07-31T14:53:49;26.10;99.90
7000;DHT22;3540;53.242;10.408;2022-07-31T14:56:16;25.80;99.90
7000;DHT22;3540;53.242;10.408;2022-07-31T14:58:42;25.50;99.90
7000;DHT22;3540;53.242;10.408;2022-07-31T15:01:07;25.30;99.90
7000;DHT22;3540;53.242;10.408;2022-07-31T15:03:33;25.20;99.90
7000;DHT22;3540;53.242;10.408;2022-07-31T15:05:59;25.00;99.90
7000;DHT22;3540;53.242;10.408;2022-07-31T15:08:24;24.70;99.90
7000;DHT22;3540;53.242;10.408;2022-07-31T15:10:50;24.50;99.90
7000;DHT22;3540;53.242;10.408;2022-07-31T15:13:15;24.20;99.90
7000;DHT22;3540;53.242;10.408;2022-07-31T15:15:41;23.90;99.90
7000;DHT22;3540;53.242;10.408;2022-07-31T15:18:07;23.80;99.90
7000;DHT22;3540;53.242;10.408;2022-07-31T15:20:35;23.60;99.90
7000;DHT22;3540;53.242;10.408;2022-07-31T15:23:01;23.60;99.90
7000;DHT22;3540;53.242;10.408;2022-07-31T15:25:27;23.50;99.90
7000;DHT22;3540;53.242;10.408;2022-07-31T15:27:53;23.50;99.90
7000;DHT22;3540;53.242;10.408;2022-07-31T15:30:19;23.40;99.90
7000;DHT22;3540;53.242;10.408;2022-07-31T15:32:46;23.30;99.90
7000;DHT22;3540;53.242;10.408;2022-07-31T15:35:12;23.30;99.90
7000;DHT22;3540;53.242;10.408;2022-07-31T15:37:39;23.20;99.90
7000;DHT22;3540;53.242;10.408;2022-07-31T15:40:08;23.20;99.90
7000;DHT22;3540;53.242;10.408;2022-07-31T15:42:35;23.10;99.90
7000;DHT22;3540;53.242;10.408;2022-07-31T15:45:02;23.10;99.90
7000;DHT22;3540;53.242;10.408;2022-07-31T15:47:28;23.00;99.90
7000;DHT22;3540;53.242;10.408;2022-07-31T15:49:54;22.80;99.90
7000;DHT22;3540;53.242;10.408;2022-07-31T15:52:20;22.70;99.90
7000;DHT22;3540;53.242;10.408;2022-07-31T15:54:46;22.40;99.90
7000;DHT22;3540;53.242;10.408;2022-07-31T15:57:11;22.30;99.90
7000;DHT22;3540;53.242;10.408;2022-07-31T15:59:37;22.30;99.90
7000;DHT22;3540;53.242;10.408;2022-07-31T16:02:03;22.20;99.90
7000;DHT22;3540;53.242;10.408;2022-07-31T16:04:28;22.20;99.90
7000;DHT22;3540;53.242;10.408;2022-07-31T16:06:54;22.10;99.90
7000;DHT22;3540;53.242;10.408;2022-07-31T16:09:19;22.10;99.90
7000;DHT22;3540;53.242;10.408;2022-07-31T16:11:48;22.00;99.90
7000;DHT22;3540;53.242;10.408;2022-07-31T16:14:15;21.80;99.90
7000;DHT22;3540;53.242;10.408;2022-07-31T16:16:40;21.70;99.90